createdAt,value
2023-04-04T00:00:24.829Z,98226.53
2023-04-04T00:02:51.686Z,98202.97
2023-04-04T00:05:18.495Z,98219.28
2023-04-04T00:07:48.334Z,98205.84
2023-04-04T00:10:15.115Z,98200.41
2023-04-04T00:12:42.565Z,98211.75
2023-04-04T00:15:09.704Z,98222.00
2023-04-04T00:17:36.182Z,98212.63
2023-04-04T00:20:04.353Z,98207.34
2023-04-04T00:22:31.563Z,98207.53
2023-04-04T00:24:59.076Z,98214.63
2023-04-04T00:27:25.761Z,98210.97
2023-04-04T00:29:52.508Z,98215.78
2023-04-04T00:32:19.060Z,98214.03
2023-04-04T00:34:45.552Z,98211.22
2023-04-04T00:37:13.090Z,98203.75
2023-04-04T00:39:39.668Z,98206.63
2023-04-04T00:42:06.658Z,98210.44
2023-04-04T00:44:35.660Z,98211.50
2023-04-04T00:47:04.033Z,98212.88
2023-04-04T00:49:30.515Z,98210.97
2023-04-04T00:51:59.944Z,98208.13
2023-04-04T00:54:27.499Z,98196.22
2023-04-04T00:56:57.584Z,98196.22
2023-04-04T00:59:29.148Z,98211.69
2023-04-04T01:02:00.099Z,98205.16
2023-04-04T01:04:29.385Z,98212.09
2023-04-04T01:06:59.734Z,98205.06
2023-04-04T01:09:27.788Z,98203.53
2023-04-04T01:11:57.474Z,98190.88
2023-04-04T01:14:24.131Z,98189.59
2023-04-04T01:16:51.566Z,98196.97
2023-04-04T01:19:42.033Z,98196.72
2023-04-04T01:22:09.506Z,98191.75
2023-04-04T01:24:36.392Z,98187.53
2023-04-04T01:27:02.895Z,98186.34
2023-04-04T01:29:29.547Z,98173.13
2023-04-04T01:32:12.590Z,98175.41
2023-04-04T01:34:59.575Z,98186.59
2023-04-04T01:37:33.294Z,98165.75
2023-04-04T01:40:08.628Z,98180.88
2023-04-04T01:42:36.081Z,98169.41
2023-04-04T01:45:02.948Z,98168.38
2023-04-04T01:47:39.054Z,98172.66
2023-04-04T01:50:07.403Z,98167.78
2023-04-04T01:52:34.602Z,98161.94
2023-04-04T01:55:01.508Z,98173.69
2023-04-04T01:57:31.868Z,98179.06
2023-04-04T01:59:59.294Z,98163.56
2023-04-04T02:02:26.275Z,98148.41
2023-04-04T02:04:52.753Z,98163.81
2023-04-04T02:07:19.430Z,98168.84
2023-04-04T02:09:46.237Z,98153.91
2023-04-04T02:12:12.766Z,98166.13
2023-04-04T02:14:40.755Z,98155.63
2023-04-04T02:17:07.628Z,98164.56
2023-04-04T02:19:34.122Z,98174.09
2023-04-04T02:22:03.422Z,98172.16
2023-04-04T02:24:32.813Z,98175.72
2023-04-04T02:27:01.833Z,98166.56
2023-04-04T02:29:28.393Z,98166.34
2023-04-04T02:31:54.908Z,98169.03
2023-04-04T02:34:21.386Z,98169.28
2023-04-04T02:36:47.888Z,98165.50
2023-04-04T02:39:14.403Z,98156.34
2023-04-04T02:41:41.616Z,98161.63
2023-04-04T02:44:09.803Z,98174.03
2023-04-04T02:46:36.304Z,98170.72
2023-04-04T02:49:06.028Z,98158.16
2023-04-04T02:51:35.285Z,98159.75
2023-04-04T02:54:06.293Z,98170.34
2023-04-04T02:56:34.039Z,98154.50
2023-04-04T02:59:00.536Z,98171.28
2023-04-04T03:01:27.241Z,98181.69
2023-04-04T03:03:53.949Z,98169.53
2023-04-04T03:06:20.559Z,98165.78
2023-04-04T03:08:47.037Z,98166.34
2023-04-04T03:11:17.933Z,98163.94
2023-04-04T03:13:44.439Z,98165.09
2023-04-04T03:16:11.621Z,98165.91
2023-04-04T03:18:38.147Z,98163.19
2023-04-04T03:21:07.657Z,98170.63
2023-04-04T03:23:37.147Z,98182.22
2023-04-04T03:26:06.656Z,98172.97
2023-04-04T03:28:35.735Z,98174.59
2023-04-04T03:31:07.123Z,98164.69
2023-04-04T03:33:38.107Z,98168.16
2023-04-04T03:36:12.467Z,98174.47
2023-04-04T03:38:39.297Z,98173.53
2023-04-04T03:41:07.324Z,98183.56
2023-04-04T03:43:37.822Z,98176.84
2023-04-04T03:46:08.147Z,98181.38
2023-04-04T03:48:38.152Z,98174.59
2023-04-04T03:51:07.533Z,98176.16
2023-04-04T03:53:36.769Z,98183.00
2023-04-04T03:56:03.445Z,98154.47
2023-04-04T03:58:30.770Z,98186.91
2023-04-04T04:00:57.270Z,98173.44
2023-04-04T04:03:23.813Z,98184.22
2023-04-04T04:05:50.741Z,98189.31
2023-04-04T04:08:17.196Z,98182.53
2023-04-04T04:10:43.616Z,98171.78
2023-04-04T04:13:10.111Z,98171.78
2023-04-04T04:15:37.314Z,98167.72
2023-04-04T04:18:04.021Z,98178.59
2023-04-04T04:20:30.461Z,98184.53
2023-04-04T04:22:56.902Z,98191.53
2023-04-04T04:25:23.555Z,98191.66
2023-04-04T04:27:50.978Z,98183.06
2023-04-04T04:30:17.407Z,98198.13
2023-04-04T04:32:44.018Z,98192.00
2023-04-04T04:35:10.692Z,98169.88
2023-04-04T04:37:40.959Z,98176.66
2023-04-04T04:40:08.930Z,98201.16
2023-04-04T04:42:38.290Z,98192.94
2023-04-04T04:45:07.665Z,98200.41
2023-04-04T04:47:34.166Z,98191.03
2023-04-04T04:50:01.216Z,98200.56
2023-04-04T04:52:29.238Z,98199.09
2023-04-04T04:54:56.009Z,98206.91
2023-04-04T04:57:23.080Z,98202.56
2023-04-04T04:59:49.532Z,98192.94
2023-04-04T05:02:16.716Z,98206.00
2023-04-04T05:04:45.301Z,98207.16
2023-04-04T05:07:12.524Z,98223.25
2023-04-04T05:09:39.250Z,98214.25
2023-04-04T05:12:06.086Z,98209.97
2023-04-04T05:14:32.578Z,98171.78
2023-04-04T05:16:59.158Z,98217.16
2023-04-04T05:19:25.899Z,98211.53
2023-04-04T05:21:52.428Z,98209.75
2023-04-04T05:24:18.976Z,98208.94
2023-04-04T05:26:47.116Z,98220.91
2023-04-04T05:29:13.620Z,98208.22
2023-04-04T05:31:40.462Z,98208.84
2023-04-04T05:34:09.735Z,98214.03
2023-04-04T05:36:39.275Z,98211.84
2023-04-04T05:39:08.494Z,98200.06
2023-04-04T05:41:35.055Z,98217.06
2023-04-04T05:44:01.571Z,98215.41
2023-04-04T05:46:28.231Z,98222.72
2023-04-04T05:48:54.813Z,98226.47
2023-04-04T05:51:21.568Z,98231.81
2023-04-04T05:53:48.808Z,98217.50
2023-04-04T05:56:15.483Z,98230.13
2023-04-04T05:58:42.970Z,98234.41
2023-04-04T06:01:09.432Z,98234.31
2023-04-04T06:03:38.257Z,98252.16
2023-04-04T06:06:07.749Z,98242.16
2023-04-04T06:08:50.246Z,98246.31
2023-04-04T06:11:19.800Z,98234.63
2023-04-04T06:13:46.319Z,98255.41
2023-04-04T06:16:12.834Z,98263.53
2023-04-04T06:18:39.292Z,98265.81
2023-04-04T06:21:07.988Z,98264.47
2023-04-04T06:23:34.481Z,98248.50
2023-04-04T06:26:00.999Z,98257.16
2023-04-04T06:28:27.493Z,98251.66
2023-04-04T06:30:53.968Z,98266.88
2023-04-04T06:33:20.405Z,98276.69
2023-04-04T06:35:46.847Z,98269.38
2023-04-04T06:38:13.477Z,98270.31
2023-04-04T06:40:40.285Z,98274.81
2023-04-04T06:43:10.144Z,98251.28
2023-04-04T06:45:37.661Z,98280.69
2023-04-04T06:48:04.176Z,98261.09
2023-04-04T06:50:33.871Z,98284.63
2023-04-04T06:53:03.580Z,98280.44
2023-04-04T06:55:30.148Z,98281.47
2023-04-04T06:57:56.700Z,98277.34
2023-04-04T07:00:23.636Z,98270.88
2023-04-04T07:02:50.569Z,98258.69
2023-04-04T07:05:18.127Z,98276.44
2023-04-04T07:07:46.965Z,98263.50
2023-04-04T07:10:13.519Z,98266.19
2023-04-04T07:12:40.097Z,98269.91
2023-04-04T07:15:10.072Z,98274.50
2023-04-04T07:17:41.064Z,98274.50
2023-04-04T07:20:08.499Z,98253.53
2023-04-04T07:22:39.444Z,98271.03
2023-04-04T07:25:07.544Z,98277.31
2023-04-04T07:27:34.104Z,98273.22
2023-04-04T07:30:00.549Z,98277.63
2023-04-04T07:32:27.031Z,98269.09
2023-04-04T07:34:53.642Z,98253.19
2023-04-04T07:37:20.194Z,98281.97
2023-04-04T07:39:47.702Z,98279.00
2023-04-04T07:42:14.255Z,98275.16
2023-04-04T07:44:40.803Z,98283.25
2023-04-04T07:47:11.480Z,98280.00
2023-04-04T07:49:38.560Z,98278.44
2023-04-04T07:52:09.664Z,98276.56
2023-04-04T07:54:38.469Z,98282.00
2023-04-04T07:57:08.428Z,98274.41
2023-04-04T07:59:37.811Z,98263.16
2023-04-04T08:02:04.300Z,98258.88
2023-04-04T08:04:30.943Z,98256.94
2023-04-04T08:06:57.589Z,98262.31
2023-04-04T08:09:24.987Z,98257.53
2023-04-04T08:11:51.765Z,98260.84
2023-04-04T08:14:18.245Z,98263.66
2023-04-04T08:16:44.719Z,98260.09
2023-04-04T08:19:11.478Z,98263.84
2023-04-04T08:21:38.712Z,98268.03
2023-04-04T08:24:05.266Z,98263.75
2023-04-04T08:26:32.010Z,98270.78
2023-04-04T08:28:58.591Z,98256.69
2023-04-04T08:31:25.211Z,98256.69
2023-04-04T08:33:52.502Z,98250.28
2023-04-04T08:36:19.706Z,98247.53
2023-04-04T08:38:46.236Z,98253.00
2023-04-04T08:41:13.432Z,98251.09
2023-04-04T08:43:43.644Z,98241.75
2023-04-04T08:46:12.767Z,98241.63
2023-04-04T08:48:41.600Z,98228.06
2023-04-04T08:51:12.187Z,98233.91
2023-04-04T08:53:41.756Z,98233.72
2023-04-04T08:56:11.226Z,98220.56
2023-04-04T08:58:40.960Z,98231.47
2023-04-04T09:01:10.857Z,98243.47
2023-04-04T09:03:42.720Z,98238.19
2023-04-04T09:06:12.084Z,98251.06
2023-04-04T09:08:40.090Z,98230.03
2023-04-04T09:11:08.390Z,98246.97
2023-04-04T09:13:41.488Z,98239.72
2023-04-04T09:16:08.689Z,98221.13
2023-04-04T09:18:39.041Z,98235.75
2023-04-04T09:21:12.369Z,98238.22
2023-04-04T09:23:39.544Z,98249.88
2023-04-04T09:26:10.208Z,98259.78
2023-04-04T09:28:39.563Z,98251.44
2023-04-04T09:31:09.782Z,98251.91
2023-04-04T09:33:38.745Z,98236.38
2023-04-04T09:36:13.731Z,98253.63
2023-04-04T09:38:45.404Z,98253.19
2023-04-04T09:41:16.089Z,98235.13
2023-04-04T09:43:45.816Z,98252.25
2023-04-04T09:46:12.962Z,98249.19
2023-04-04T09:48:39.516Z,98228.13
2023-04-04T09:51:12.359Z,98239.97
2023-04-04T09:53:39.925Z,98245.06
2023-04-04T09:56:11.310Z,98249.53
2023-04-04T09:58:44.261Z,98228.50
2023-04-04T10:01:19.208Z,98230.38
2023-04-04T10:03:55.120Z,98243.75
2023-04-04T10:06:22.903Z,98252.59
2023-04-04T10:08:49.876Z,98256.97
2023-04-04T10:11:29.861Z,98258.41
2023-04-04T10:13:57.519Z,98233.81
2023-04-04T10:16:26.621Z,98249.91
2023-04-04T10:18:53.543Z,98247.84
2023-04-04T10:21:21.205Z,98254.94
2023-04-04T10:23:48.837Z,98238.19
2023-04-04T10:26:15.653Z,98250.28
2023-04-04T10:28:43.912Z,98250.56
2023-04-04T10:31:25.935Z,98222.94
2023-04-04T10:33:59.489Z,98258.59
2023-04-04T10:36:31.563Z,98250.78
2023-04-04T10:39:10.466Z,98259.97
2023-04-04T10:41:40.680Z,98256.66
2023-04-04T10:44:23.584Z,98225.75
2023-04-04T10:46:54.106Z,98252.41
2023-04-04T10:49:22.438Z,98240.31
2023-04-04T10:54:43.900Z,98224.00
2023-04-04T10:57:13.688Z,98231.34
2023-04-04T10:59:56.558Z,98232.44
2023-04-04T11:02:55.773Z,98228.94
2023-04-04T11:05:27.240Z,98225.88
2023-04-04T11:10:30.967Z,98222.56
2023-04-04T11:13:12.686Z,98210.09
2023-04-04T11:16:11.951Z,98201.66
2023-04-04T11:18:42.557Z,98222.06
2023-04-04T11:21:18.595Z,98223.09
2023-04-04T11:23:48.497Z,98228.50
2023-04-04T11:26:27.695Z,98235.22
2023-04-04T11:28:58.716Z,98206.34
2023-04-04T11:31:28.876Z,98228.25
2023-04-04T11:34:13.168Z,98221.03
2023-04-04T11:36:41.554Z,98228.47
2023-04-04T11:39:28.829Z,98214.53
2023-04-04T11:42:06.874Z,98213.78
2023-04-04T11:44:43.104Z,98212.25
2023-04-04T11:47:12.673Z,98207.06
2023-04-04T11:49:42.970Z,98210.25
2023-04-04T11:52:18.480Z,98204.34
2023-04-04T11:54:49.112Z,98208.53
2023-04-04T11:57:20.572Z,98218.66
2023-04-04T11:59:48.947Z,98224.09
2023-04-04T12:02:29.799Z,98209.72
2023-04-04T12:04:57.365Z,98221.66
2023-04-04T12:07:24.782Z,98218.53
2023-04-04T12:09:51.692Z,98217.63
2023-04-04T12:12:18.290Z,98221.41
2023-04-04T12:14:44.827Z,98221.78
2023-04-04T12:17:12.452Z,98196.81
2023-04-04T12:19:42.512Z,98203.53
2023-04-04T12:22:09.034Z,98192.28
2023-04-04T12:24:36.481Z,98202.31
2023-04-04T12:27:03.722Z,98208.06
2023-04-04T12:29:38.379Z,98193.16
2023-04-04T12:32:06.580Z,98191.53
2023-04-04T12:34:36.205Z,98191.88
2023-04-04T12:37:05.482Z,98195.50
2023-04-04T12:39:32.206Z,98197.19
2023-04-04T12:42:01.583Z,98194.50
2023-04-04T12:44:32.175Z,98201.19
2023-04-04T12:47:00.950Z,98188.56
2023-04-04T12:49:43.202Z,98197.09
2023-04-04T12:52:21.751Z,98205.91
2023-04-04T12:55:06.681Z,98202.53
2023-04-04T12:57:36.673Z,98205.81
2023-04-04T13:00:04.584Z,98213.19
2023-04-04T13:02:31.451Z,98204.72
2023-04-04T13:04:58.889Z,98176.81
2023-04-04T13:07:32.933Z,98193.56
2023-04-04T13:10:05.454Z,98190.19
2023-04-04T13:12:56.821Z,98186.78
2023-04-04T13:15:23.764Z,98188.88
2023-04-04T13:17:51.434Z,98175.59
2023-04-04T13:20:20.997Z,98195.91
2023-04-04T13:22:47.901Z,98191.19
2023-04-04T13:25:14.405Z,98184.63
2023-04-04T13:27:43.716Z,98178.38
2023-04-04T13:30:12.371Z,98181.06
2023-04-04T13:32:38.952Z,98187.41
2023-04-04T13:35:06.573Z,98181.50
2023-04-04T13:37:33.116Z,98165.75
2023-04-04T13:39:59.567Z,98171.75
2023-04-04T13:42:30.242Z,98164.72
2023-04-04T13:44:57.266Z,98171.31
2023-04-04T13:47:27.511Z,98170.47
2023-04-04T13:49:57.324Z,98160.03
2023-04-04T13:52:24.093Z,98160.28
2023-04-04T13:54:50.741Z,98162.13
2023-04-04T13:57:17.297Z,98169.63
2023-04-04T13:59:43.769Z,98159.59
2023-04-04T14:02:12.945Z,98165.19
2023-04-04T14:04:39.521Z,98160.53
2023-04-04T14:07:06.491Z,98157.06
2023-04-04T14:09:33.032Z,98153.38
2023-04-04T14:11:59.540Z,98146.75
2023-04-04T14:14:26.208Z,98149.06
2023-04-04T14:16:53.041Z,98134.41
2023-04-04T14:19:20.934Z,98140.25
2023-04-04T14:21:48.476Z,98143.13
2023-04-04T14:24:15.415Z,98149.78
2023-04-04T14:26:44.894Z,98145.53
2023-04-04T14:29:13.870Z,98141.91
2023-04-04T14:31:42.785Z,98141.97
2023-04-04T14:34:09.290Z,98140.00
2023-04-04T14:36:35.952Z,98141.72
2023-04-04T14:39:02.897Z,98148.41
2023-04-04T14:41:29.456Z,98149.06
2023-04-04T14:43:58.002Z,98157.88
2023-04-04T14:46:25.747Z,98146.25
2023-04-04T14:48:53.349Z,98152.94
2023-04-04T14:51:20.001Z,98150.34
2023-04-04T14:53:46.688Z,98153.66
2023-04-04T14:56:16.374Z,98125.34
2023-04-04T14:58:43.827Z,98144.38
2023-04-04T15:01:12.610Z,98146.75
2023-04-04T15:03:39.097Z,98141.34
2023-04-04T15:06:05.909Z,98155.56
2023-04-04T15:08:32.335Z,98145.81
2023-04-04T15:11:01.131Z,98147.66
2023-04-04T15:13:27.749Z,98144.44
2023-04-04T15:15:54.281Z,98152.16
2023-04-04T15:18:20.985Z,98149.75
2023-04-04T15:20:47.788Z,98139.84
2023-04-04T15:23:14.268Z,98152.09
2023-04-04T15:25:42.700Z,98147.25
2023-04-04T15:28:09.195Z,98148.13
2023-04-04T15:30:35.846Z,98145.94
2023-04-04T15:33:02.586Z,98138.13
2023-04-04T15:35:29.109Z,98158.50
2023-04-04T15:37:55.876Z,98155.81
2023-04-04T15:40:22.452Z,98158.47
2023-04-04T15:42:48.958Z,98149.44
2023-04-04T15:45:16.155Z,98157.28
2023-04-04T15:47:48.239Z,98138.50
2023-04-04T15:50:14.886Z,98132.97
2023-04-04T15:52:45.266Z,98144.50
2023-04-04T15:55:17.022Z,98132.16
2023-04-04T15:57:44.975Z,98144.28
2023-04-04T16:00:15.114Z,98162.41
2023-04-04T16:02:43.259Z,98155.81
2023-04-04T16:05:10.229Z,98154.13
2023-04-04T16:07:37.915Z,98154.69
2023-04-04T16:10:04.840Z,98158.81
2023-04-04T16:12:31.334Z,98156.53
2023-04-04T16:14:57.902Z,98151.41
2023-04-04T16:17:26.229Z,98160.44
2023-04-04T16:19:52.915Z,98152.00
2023-04-04T16:22:19.407Z,98160.19
2023-04-04T16:24:45.884Z,98159.44
2023-04-04T16:27:15.621Z,98158.69
2023-04-04T16:29:43.495Z,98168.16
2023-04-04T16:32:10.320Z,98170.03
2023-04-04T16:34:38.785Z,98157.63
2023-04-04T16:37:19.539Z,98153.88
2023-04-04T16:39:52.109Z,98124.81
2023-04-04T16:42:19.569Z,98161.81
2023-04-04T16:44:47.315Z,98167.16
2023-04-04T16:47:14.274Z,98168.97
2023-04-04T16:49:42.640Z,98162.75
2023-04-04T16:52:15.686Z,98158.88
2023-04-04T16:54:45.688Z,98175.91
2023-04-04T16:57:13.440Z,98180.28
2023-04-04T16:59:39.974Z,98173.53
2023-04-04T17:02:13.744Z,98175.47
2023-04-04T17:04:45.398Z,98173.75
2023-04-04T17:07:14.984Z,98168.28
2023-04-04T17:09:42.720Z,98164.47
2023-04-04T17:12:17.307Z,98163.31
2023-04-04T17:14:44.211Z,98186.22
2023-04-04T17:17:14.206Z,98189.56
2023-04-04T17:19:44.624Z,98186.59
2023-04-04T17:22:15.035Z,98180.63
2023-04-04T17:24:43.413Z,98182.72
2023-04-04T17:27:09.941Z,98179.19
2023-04-04T17:29:36.860Z,98188.19
2023-04-04T17:32:04.146Z,98180.84
2023-04-04T17:34:36.866Z,98184.31
2023-04-04T17:37:03.437Z,98195.72
2023-04-04T17:39:30.090Z,98191.75
2023-04-04T17:41:59.589Z,98204.56
2023-04-04T17:44:26.686Z,98197.16
2023-04-04T17:46:55.648Z,98175.47
2023-04-04T17:49:23.760Z,98161.16
2023-04-04T17:51:50.468Z,98199.19
2023-04-04T17:54:17.299Z,98197.41
2023-04-04T17:56:45.409Z,98196.28
2023-04-04T17:59:14.655Z,98191.72
2023-04-04T18:01:43.308Z,98203.19
2023-04-04T18:04:10.002Z,98203.06
2023-04-04T18:09:19.788Z,98194.28
2023-04-04T18:11:46.352Z,98201.88
2023-04-04T18:14:13.835Z,98194.75
2023-04-04T18:16:41.271Z,98199.88
2023-04-04T18:19:09.609Z,98205.00
2023-04-04T18:21:36.822Z,98209.88
2023-04-04T18:24:05.384Z,98208.53
2023-04-04T18:26:32.195Z,98215.84
2023-04-04T18:28:59.250Z,98219.63
2023-04-04T18:31:26.620Z,98216.94
2023-04-04T18:33:53.129Z,98228.50
2023-04-04T18:36:19.663Z,98235.34
2023-04-04T18:38:47.566Z,98233.22
2023-04-04T18:41:17.485Z,98234.56
2023-04-04T18:43:47.075Z,98239.94
2023-04-04T18:46:16.708Z,98240.91
2023-04-04T18:48:50.093Z,98235.28
2023-04-04T18:51:17.498Z,98251.38
2023-04-04T18:53:52.553Z,98243.47
2023-04-04T18:56:18.995Z,98255.59
2023-04-04T18:58:45.655Z,98239.88
2023-04-04T19:01:13.523Z,98250.38
2023-04-04T19:03:47.525Z,98255.22
2023-04-04T19:06:15.270Z,98261.97
2023-04-04T19:08:46.103Z,98257.75
2023-04-04T19:11:15.589Z,98263.91
2023-04-04T19:13:44.408Z,98258.81
2023-04-04T19:16:11.060Z,98256.47
2023-04-04T19:18:37.670Z,98264.94
2023-04-04T19:21:05.638Z,98268.69
2023-04-04T19:23:32.456Z,98263.69
2023-04-04T19:26:02.104Z,98283.78
2023-04-04T19:28:29.376Z,98283.53
2023-04-04T19:30:56.120Z,98288.38
2023-04-04T19:33:24.153Z,98294.25
2023-04-04T19:35:54.420Z,98290.47
2023-04-04T19:38:31.943Z,98291.63
2023-04-04T19:41:00.931Z,98295.16
2023-04-04T19:43:29.162Z,98286.25
2023-04-04T19:46:06.703Z,98291.63
2023-04-04T19:48:48.625Z,98300.31
2023-04-04T19:51:15.092Z,98298.81
2023-04-04T19:53:45.884Z,98302.28
2023-04-04T19:56:16.068Z,98287.22
2023-04-04T19:58:50.409Z,98281.53
2023-04-04T20:01:22.866Z,98309.84
2023-04-04T20:03:49.730Z,98310.13
2023-04-04T20:06:27.617Z,98310.56
2023-04-04T20:09:02.406Z,98304.78
2023-04-04T20:11:34.005Z,98311.16
2023-04-04T20:14:02.525Z,98312.00
2023-04-04T20:16:29.884Z,98310.91
2023-04-04T20:18:58.615Z,98314.25
2023-04-04T20:21:29.945Z,98308.72
2023-04-04T20:23:59.231Z,98309.44
2023-04-04T20:26:48.301Z,98303.06
2023-04-04T20:29:16.053Z,98324.97
2023-04-04T20:31:44.450Z,98330.41
2023-04-04T20:34:31.530Z,98335.00
2023-04-04T20:36:58.080Z,98334.28
2023-04-04T20:39:37.987Z,98331.94
2023-04-04T20:42:26.078Z,98340.69
2023-04-04T20:44:53.306Z,98333.19
2023-04-04T20:47:52.837Z,98349.00
2023-04-04T20:50:44.655Z,98347.78
2023-04-04T20:53:17.992Z,98358.31
2023-04-04T20:55:44.831Z,98347.91
2023-04-04T20:58:40.523Z,98356.63
2023-04-04T21:01:10.113Z,98347.06
2023-04-04T21:03:37.316Z,98369.41
2023-04-04T21:06:16.777Z,98369.84
2023-04-04T21:08:49.822Z,98363.16
2023-04-04T21:11:29.042Z,98357.47
2023-04-04T21:13:56.747Z,98355.78
2023-04-04T21:16:26.047Z,98358.44
2023-04-04T21:19:01.093Z,98354.69
2023-04-04T21:21:30.520Z,98354.50
2023-04-04T21:23:59.201Z,98355.63
2023-04-04T21:26:31.978Z,98356.31
2023-04-04T21:29:01.142Z,98358.94
2023-04-04T21:31:35.045Z,98356.56
2023-04-04T21:34:31.174Z,98360.44
2023-04-04T21:37:01.951Z,98368.06
2023-04-04T21:39:29.882Z,98351.13
2023-04-04T21:42:06.053Z,98362.75
2023-04-04T21:44:34.593Z,98373.06
2023-04-04T21:47:01.085Z,98378.09
2023-04-04T21:49:28.357Z,98380.78
2023-04-04T21:51:54.838Z,98381.69
2023-04-04T21:54:23.202Z,98372.41
2023-04-04T21:56:49.771Z,98375.09
2023-04-04T21:59:16.324Z,98378.19
2023-04-04T22:01:45.491Z,98380.06
2023-04-04T22:04:15.890Z,98373.16
2023-04-04T22:06:45.232Z,98364.34
2023-04-04T22:09:11.907Z,98372.50
2023-04-04T22:11:44.819Z,98384.72
2023-04-04T22:14:17.488Z,98373.88
2023-04-04T22:16:47.674Z,98380.50
2023-04-04T22:19:17.960Z,98372.94
2023-04-04T22:21:47.914Z,98372.00
2023-04-04T22:24:18.296Z,98384.38
2023-04-04T22:26:46.006Z,98371.13
2023-04-04T22:29:12.946Z,98371.94
2023-04-04T22:31:39.827Z,98380.28
2023-04-04T22:34:06.530Z,98377.66
2023-04-04T22:36:34.340Z,98376.44
2023-04-04T22:39:01.950Z,98373.34
2023-04-04T22:41:29.306Z,98380.38
2023-04-04T22:43:57.155Z,98382.91
2023-04-04T22:46:25.602Z,98380.66
2023-04-04T22:48:55.426Z,98373.16
2023-04-04T22:51:22.622Z,98378.53
2023-04-04T22:53:49.188Z,98380.78
2023-04-04T22:56:18.953Z,98373.63
2023-04-04T22:58:45.895Z,98370.03
2023-04-04T23:01:12.429Z,98359.91
2023-04-04T23:03:39.013Z,98360.25
2023-04-04T23:06:05.880Z,98372.66
2023-04-04T23:08:32.306Z,98374.81
2023-04-04T23:10:58.925Z,98358.63
2023-04-04T23:13:25.559Z,98358.97
2023-04-04T23:15:52.015Z,98357.78
2023-04-04T23:18:21.981Z,98365.44
2023-04-04T23:20:49.366Z,98363.28
2023-04-04T23:23:15.802Z,98363.25
2023-04-04T23:25:42.282Z,98365.16
2023-04-04T23:28:08.727Z,98368.34
2023-04-04T23:30:35.305Z,98365.66
2023-04-04T23:33:01.774Z,98365.03
2023-04-04T23:35:28.361Z,98364.19
2023-04-04T23:37:54.924Z,98363.50
2023-04-04T23:40:21.404Z,98359.50
2023-04-04T23:42:51.574Z,98356.00
2023-04-04T23:45:20.067Z,98365.19
2023-04-04T23:47:46.666Z,98362.72
2023-04-04T23:50:13.178Z,98364.25
2023-04-04T23:52:40.277Z,98368.19
2023-04-04T23:55:07.863Z,98369.25
2023-04-04T23:57:34.284Z,98352.78
